sensor_id;sensor_type;location;lat;lon;timestamp;temperature;humidity
75621;DHT22;64574;48.506;-2.750;2023-11-21T00:01:54;10.90;84.40
75621;DHT22;64574;48.506;-2.750;2023-11-21T00:04:20;10.90;84.40
75621;DHT22;64574;48.506;-2.750;2023-11-21T00:06:47;11.00;84.40
75621;DHT22;64574;48.506;-2.750;2023-11-21T00:09:15;11.00;84.50
75621;DHT22;64574;48.506;-2.750;2023-11-21T00:11:43;11.00;84.00
75621;DHT22;64574;48.506;-2.750;2023-11-21T00:14:10;11.00;84.20
75621;DHT22;64574;48.506;-2.750;2023-11-21T00:16:36;11.00;84.10
75621;DHT22;64574;48.506;-2.750;2023-11-21T00:19:02;10.90;84.40
75621;DHT22;64574;48.506;-2.750;2023-11-21T00:21:28;10.90;84.30
75621;DHT22;64574;48.506;-2.750;2023-11-21T00:23:53;11.00;84.40
75621;DHT22;64574;48.506;-2.750;2023-11-21T00:26:19;10.90;84.20
75621;DHT22;64574;48.506;-2.750;2023-11-21T00:28:44;10.90;84.20
75621;DHT22;64574;48.506;-2.750;2023-11-21T00:31:10;10.90;84.10
75621;DHT22;64574;48.506;-2.750;2023-11-21T00:33:36;10.90;83.70
75621;DHT22;64574;48.506;-2.750;2023-11-21T00:36:02;10.90;83.70
75621;DHT22;64574;48.506;-2.750;2023-11-21T00:38:27;10.90;83.60
75621;DHT22;64574;48.506;-2.750;2023-11-21T00:40:54;10.90;83.30
75621;DHT22;64574;48.506;-2.750;2023-11-21T00:43:24;10.90;83.40
75621;DHT22;64574;48.506;-2.750;2023-11-21T00:45:50;10.90;83.40
75621;DHT22;64574;48.506;-2.750;2023-11-21T00:48:16;10.90;83.20
75621;DHT22;64574;48.506;-2.750;2023-11-21T00:50:43;10.90;83.30
75621;DHT22;64574;48.506;-2.750;2023-11-21T00:53:09;10.90;83.00
75621;DHT22;64574;48.506;-2.750;2023-11-21T00:55:36;10.90;83.00
75621;DHT22;64574;48.506;-2.750;2023-11-21T00:58:02;10.90;82.90
75621;DHT22;64574;48.506;-2.750;2023-11-21T01:00:29;10.90;82.70
75621;DHT22;64574;48.506;-2.750;2023-11-21T01:02:55;10.90;82.50
75621;DHT22;64574;48.506;-2.750;2023-11-21T01:05:21;10.90;82.50
75621;DHT22;64574;48.506;-2.750;2023-11-21T01:07:47;10.90;82.10
75621;DHT22;64574;48.506;-2.750;2023-11-21T01:10:13;10.90;82.30
75621;DHT22;64574;48.506;-2.750;2023-11-21T01:12:39;11.00;81.90
75621;DHT22;64574;48.506;-2.750;2023-11-21T01:15:05;10.90;81.80
75621;DHT22;64574;48.506;-2.750;2023-11-21T01:17:34;10.80;82.30
75621;DHT22;64574;48.506;-2.750;2023-11-21T01:20:01;10.80;82.10
75621;DHT22;64574;48.506;-2.750;2023-11-21T01:22:28;10.80;82.20
75621;DHT22;64574;48.506;-2.750;2023-11-21T01:24:54;10.80;82.30
75621;DHT22;64574;48.506;-2.750;2023-11-21T01:27:20;10.70;82.30
75621;DHT22;64574;48.506;-2.750;2023-11-21T01:29:45;10.80;82.30
75621;DHT22;64574;48.506;-2.750;2023-11-21T01:32:11;10.80;82.20
75621;DHT22;64574;48.506;-2.750;2023-11-21T01:34:37;10.70;82.30
75621;DHT22;64574;48.506;-2.750;2023-11-21T01:37:03;10.70;82.40
75621;DHT22;64574;48.506;-2.750;2023-11-21T01:39:30;10.70;82.40
75621;DHT22;64574;48.506;-2.750;2023-11-21T01:41:57;10.70;82.30
75621;DHT22;64574;48.506;-2.750;2023-11-21T01:44:26;10.70;82.30
75621;DHT22;64574;48.506;-2.750;2023-11-21T01:46:52;10.70;82.30
75621;DHT22;64574;48.506;-2.750;2023-11-21T01:49:19;10.70;82.20
75621;DHT22;64574;48.506;-2.750;2023-11-21T01:51:48;10.70;82.20
75621;DHT22;64574;48.506;-2.750;2023-11-21T01:54:16;10.80;82.10
75621;DHT22;64574;48.506;-2.750;2023-11-21T01:56:44;10.80;81.90
75621;DHT22;64574;48.506;-2.750;2023-11-21T01:59:11;10.70;81.80
75621;DHT22;64574;48.506;-2.750;2023-11-21T02:01:37;10.80;81.90
75621;DHT22;64574;48.506;-2.750;2023-11-21T02:04:03;10.90;81.70
75621;DHT22;64574;48.506;-2.750;2023-11-21T02:06:29;10.90;81.40
75621;DHT22;64574;48.506;-2.750;2023-11-21T02:08:56;10.90;81.40
75621;DHT22;64574;48.506;-2.750;2023-11-21T02:11:22;10.90;81.20
75621;DHT22;64574;48.506;-2.750;2023-11-21T02:13:47;10.90;81.20
75621;DHT22;64574;48.506;-2.750;2023-11-21T02:16:15;10.90;81.40
75621;DHT22;64574;48.506;-2.750;2023-11-21T02:18:41;10.90;81.40
75621;DHT22;64574;48.506;-2.750;2023-11-21T02:21:07;10.90;82.00
75621;DHT22;64574;48.506;-2.750;2023-11-21T02:23:33;10.80;82.20
75621;DHT22;64574;48.506;-2.750;2023-11-21T02:25:59;10.80;82.60
75621;DHT22;64574;48.506;-2.750;2023-11-21T02:28:30;10.90;82.70
75621;DHT22;64574;48.506;-2.750;2023-11-21T02:30:55;10.90;82.70
75621;DHT22;64574;48.506;-2.750;2023-11-21T02:33:23;10.80;83.00
75621;DHT22;64574;48.506;-2.750;2023-11-21T02:35:48;10.80;82.90
75621;DHT22;64574;48.506;-2.750;2023-11-21T02:38:14;10.80;83.00
75621;DHT22;64574;48.506;-2.750;2023-11-21T02:40:41;10.70;83.20
75621;DHT22;64574;48.506;-2.750;2023-11-21T02:43:07;10.70;83.00
75621;DHT22;64574;48.506;-2.750;2023-11-21T02:45:33;10.80;83.20
75621;DHT22;64574;48.506;-2.750;2023-11-21T02:47:58;10.70;83.00
75621;DHT22;64574;48.506;-2.750;2023-11-21T02:50:24;10.80;83.00
75621;DHT22;64574;48.506;-2.750;2023-11-21T02:52:50;10.80;82.80
75621;DHT22;64574;48.506;-2.750;2023-11-21T02:55:16;10.80;82.70
75621;DHT22;64574;48.506;-2.750;2023-11-21T02:57:42;10.80;82.70
75621;DHT22;64574;48.506;-2.750;2023-11-21T03:00:08;10.90;82.70
75621;DHT22;64574;48.506;-2.750;2023-11-21T03:02:38;10.80;82.50
75621;DHT22;64574;48.506;-2.750;2023-11-21T03:05:05;10.80;82.60
75621;DHT22;64574;48.506;-2.750;2023-11-21T03:07:31;10.80;82.50
75621;DHT22;64574;48.506;-2.750;2023-11-21T03:09:56;10.80;82.50
75621;DHT22;64574;48.506;-2.750;2023-11-21T03:12:22;10.80;82.30
75621;DHT22;64574;48.506;-2.750;2023-11-21T03:14:47;10.90;82.30
75621;DHT22;64574;48.506;-2.750;2023-11-21T03:17:13;10.90;82.10
75621;DHT22;64574;48.506;-2.750;2023-11-21T03:19:41;10.90;82.30
75621;DHT22;64574;48.506;-2.750;2023-11-21T03:22:07;10.90;82.30
75621;DHT22;64574;48.506;-2.750;2023-11-21T03:24:34;10.90;82.40
75621;DHT22;64574;48.506;-2.750;2023-11-21T03:27:00;10.90;82.30
75621;DHT22;64574;48.506;-2.750;2023-11-21T03:29:26;10.90;82.20
75621;DHT22;64574;48.506;-2.750;2023-11-21T03:31:51;10.90;82.20
75621;DHT22;64574;48.506;-2.750;2023-11-21T03:34:25;10.90;82.30
75621;DHT22;64574;48.506;-2.750;2023-11-21T03:36:52;10.90;81.80
75621;DHT22;64574;48.506;-2.750;2023-11-21T03:39:19;10.90;81.80
75621;DHT22;64574;48.506;-2.750;2023-11-21T03:41:45;10.90;81.60
75621;DHT22;64574;48.506;-2.750;2023-11-21T03:44:10;10.90;81.40
75621;DHT22;64574;48.506;-2.750;2023-11-21T03:46:36;10.90;81.20
75621;DHT22;64574;48.506;-2.750;2023-11-21T03:49:01;10.90;80.90
75621;DHT22;64574;48.506;-2.750;2023-11-21T03:51:27;10.90;80.70
75621;DHT22;64574;48.506;-2.750;2023-11-21T03:53:53;10.90;80.70
75621;DHT22;64574;48.506;-2.750;2023-11-21T03:56:19;10.90;80.60
75621;DHT22;64574;48.506;-2.750;2023-11-21T03:58:47;10.90;80.60
75621;DHT22;64574;48.506;-2.750;2023-11-21T04:01:22;10.90;80.50
75621;DHT22;64574;48.506;-2.750;2023-11-21T04:03:48;11.00;80.50
75621;DHT22;64574;48.506;-2.750;2023-11-21T04:06:14;11.00;80.40
75621;DHT22;64574;48.506;-2.750;2023-11-21T04:08:40;10.90;80.80
75621;DHT22;64574;48.506;-2.750;2023-11-21T04:11:06;11.00;81.00
75621;DHT22;64574;48.506;-2.750;2023-11-21T04:13:31;10.90;80.80
75621;DHT22;64574;48.506;-2.750;2023-11-21T04:15:57;11.00;80.70
75621;DHT22;64574;48.506;-2.750;2023-11-21T04:18:22;10.90;80.50
75621;DHT22;64574;48.506;-2.750;2023-11-21T04:20:51;11.00;80.30
75621;DHT22;64574;48.506;-2.750;2023-11-21T04:23:16;11.00;80.20
75621;DHT22;64574;48.506;-2.750;2023-11-21T04:25:42;11.00;80.10
75621;DHT22;64574;48.506;-2.750;2023-11-21T04:28:08;11.00;80.00
75621;DHT22;64574;48.506;-2.750;2023-11-21T04:30:34;11.00;79.80
75621;DHT22;64574;48.506;-2.750;2023-11-21T04:32:59;11.00;80.00
75621;DHT22;64574;48.506;-2.750;2023-11-21T04:35:25;11.00;80.10
75621;DHT22;64574;48.506;-2.750;2023-11-21T04:37:50;11.00;80.20
75621;DHT22;64574;48.506;-2.750;2023-11-21T04:40:16;11.00;80.20
75621;DHT22;64574;48.506;-2.750;2023-11-21T04:42:42;11.00;80.20
75621;DHT22;64574;48.506;-2.750;2023-11-21T04:45:08;11.10;80.30
75621;DHT22;64574;48.506;-2.750;2023-11-21T04:47:35;11.10;80.10
75621;DHT22;64574;48.506;-2.750;2023-11-21T04:50:02;11.00;80.30
75621;DHT22;64574;48.506;-2.750;2023-11-21T04:52:28;11.00;80.40
75621;DHT22;64574;48.506;-2.750;2023-11-21T04:54:54;11.00;80.30
75621;DHT22;64574;48.506;-2.750;2023-11-21T04:57:22;11.00;80.30
75621;DHT22;64574;48.506;-2.750;2023-11-21T04:59:51;11.00;80.30
75621;DHT22;64574;48.506;-2.750;2023-11-21T05:02:16;11.00;80.30
75621;DHT22;64574;48.506;-2.750;2023-11-21T05:04:43;11.00;80.40
75621;DHT22;64574;48.506;-2.750;2023-11-21T05:07:09;11.00;80.50
75621;DHT22;64574;48.506;-2.750;2023-11-21T05:09:35;11.00;80.70
75621;DHT22;64574;48.506;-2.750;2023-11-21T05:12:02;11.00;81.00
75621;DHT22;64574;48.506;-2.750;2023-11-21T05:14:28;11.00;81.00
75621;DHT22;64574;48.506;-2.750;2023-11-21T05:16:54;10.90;80.90
75621;DHT22;64574;48.506;-2.750;2023-11-21T05:19:20;11.00;81.00
75621;DHT22;64574;48.506;-2.750;2023-11-21T05:21:46;10.90;80.90
75621;DHT22;64574;48.506;-2.750;2023-11-21T05:24:12;10.90;81.00
75621;DHT22;64574;48.506;-2.750;2023-11-21T05:26:38;10.90;81.20
75621;DHT22;64574;48.506;-2.750;2023-11-21T05:29:04;10.90;81.10
75621;DHT22;64574;48.506;-2.750;2023-11-21T05:31:29;10.90;81.00
75621;DHT22;64574;48.506;-2.750;2023-11-21T05:33:55;10.90;80.50
75621;DHT22;64574;48.506;-2.750;2023-11-21T05:36:21;10.80;81.10
75621;DHT22;64574;48.506;-2.750;2023-11-21T05:38:47;10.80;81.20
75621;DHT22;64574;48.506;-2.750;2023-11-21T05:41:12;10.80;80.80
75621;DHT22;64574;48.506;-2.750;2023-11-21T05:43:39;10.90;80.50
75621;DHT22;64574;48.506;-2.750;2023-11-21T05:46:05;10.90;80.30
75621;DHT22;64574;48.506;-2.750;2023-11-21T05:48:32;10.80;80.40
75621;DHT22;64574;48.506;-2.750;2023-11-21T05:50:58;10.80;80.50
75621;DHT22;64574;48.506;-2.750;2023-11-21T05:53:24;10.90;80.60
75621;DHT22;64574;48.506;-2.750;2023-11-21T05:55:50;10.90;80.20
75621;DHT22;64574;48.506;-2.750;2023-11-21T05:58:15;10.90;80.20
75621;DHT22;64574;48.506;-2.750;2023-11-21T06:00:41;10.90;80.20
75621;DHT22;64574;48.506;-2.750;2023-11-21T06:03:07;10.90;80.30
75621;DHT22;64574;48.506;-2.750;2023-11-21T06:05:33;10.90;80.20
75621;DHT22;64574;48.506;-2.750;2023-11-21T06:07:59;10.90;80.30
75621;DHT22;64574;48.506;-2.750;2023-11-21T06:10:25;10.90;80.20
75621;DHT22;64574;48.506;-2.750;2023-11-21T06:12:51;10.90;80.40
75621;DHT22;64574;48.506;-2.750;2023-11-21T06:15:17;10.90;80.60
75621;DHT22;64574;48.506;-2.750;2023-11-21T06:17:44;10.80;80.70
75621;DHT22;64574;48.506;-2.750;2023-11-21T06:20:14;10.80;81.00
75621;DHT22;64574;48.506;-2.750;2023-11-21T06:22:48;10.90;81.20
75621;DHT22;64574;48.506;-2.750;2023-11-21T06:25:15;10.80;81.40
75621;DHT22;64574;48.506;-2.750;2023-11-21T06:27:46;10.70;81.70
75621;DHT22;64574;48.506;-2.750;2023-11-21T06:30:13;10.70;81.90
75621;DHT22;64574;48.506;-2.750;2023-11-21T06:32:41;10.80;81.90
75621;DHT22;64574;48.506;-2.750;2023-11-21T06:35:07;10.80;81.80
75621;DHT22;64574;48.506;-2.750;2023-11-21T06:37:34;10.90;81.60
75621;DHT22;64574;48.506;-2.750;2023-11-21T06:40:00;10.90;81.50
75621;DHT22;64574;48.506;-2.750;2023-11-21T06:42:26;10.80;81.50
75621;DHT22;64574;48.506;-2.750;2023-11-21T06:44:52;10.80;81.60
75621;DHT22;64574;48.506;-2.750;2023-11-21T06:47:19;10.90;81.50
75621;DHT22;64574;48.506;-2.750;2023-11-21T06:49:50;10.90;81.20
75621;DHT22;64574;48.506;-2.750;2023-11-21T06:52:16;10.80;81.10
75621;DHT22;64574;48.506;-2.750;2023-11-21T06:54:42;10.80;81.20
75621;DHT22;64574;48.506;-2.750;2023-11-21T06:57:08;10.90;81.00
75621;DHT22;64574;48.506;-2.750;2023-11-21T06:59:33;10.90;81.00
75621;DHT22;64574;48.506;-2.750;2023-11-21T07:01:59;10.90;80.70
75621;DHT22;64574;48.506;-2.750;2023-11-21T07:04:25;10.90;80.70
75621;DHT22;64574;48.506;-2.750;2023-11-21T07:06:54;10.90;80.70
75621;DHT22;64574;48.506;-2.750;2023-11-21T07:09:20;10.90;80.70
75621;DHT22;64574;48.506;-2.750;2023-11-21T07:11:48;10.90;80.60
75621;DHT22;64574;48.506;-2.750;2023-11-21T07:14:14;10.90;80.50
75621;DHT22;64574;48.506;-2.750;2023-11-21T07:16:40;10.90;80.70
75621;DHT22;64574;48.506;-2.750;2023-11-21T07:19:06;10.90;80.70
75621;DHT22;64574;48.506;-2.750;2023-11-21T07:21:33;10.90;80.70
75621;DHT22;64574;48.506;-2.750;2023-11-21T07:24:00;10.90;80.70
75621;DHT22;64574;48.506;-2.750;2023-11-21T07:26:27;10.90;80.90
75621;DHT22;64574;48.506;-2.750;2023-11-21T07:28:52;10.80;81.10
75621;DHT22;64574;48.506;-2.750;2023-11-21T07:31:18;10.90;81.20
75621;DHT22;64574;48.506;-2.750;2023-11-21T07:33:46;10.80;81.40
75621;DHT22;64574;48.506;-2.750;2023-11-21T07:36:15;10.90;81.50
75621;DHT22;64574;48.506;-2.750;2023-11-21T07:38:42;10.90;81.60
75621;DHT22;64574;48.506;-2.750;2023-11-21T07:41:08;11.00;81.60
75621;DHT22;64574;48.506;-2.750;2023-11-21T07:43:35;11.00;81.80
75621;DHT22;64574;48.506;-2.750;2023-11-21T07:46:04;11.00;81.70
75621;DHT22;64574;48.506;-2.750;2023-11-21T07:48:30;11.00;82.10
75621;DHT22;64574;48.506;-2.750;2023-11-21T07:50:57;11.00;81.90
75621;DHT22;64574;48.506;-2.750;2023-11-21T07:53:24;11.00;82.10
75621;DHT22;64574;48.506;-2.750;2023-11-21T07:55:51;11.00;82.40
75621;DHT22;64574;48.506;-2.750;2023-11-21T07:58:16;10.90;82.40
75621;DHT22;64574;48.506;-2.750;2023-11-21T08:00:42;10.90;82.40
75621;DHT22;64574;48.506;-2.750;2023-11-21T08:03:07;11.00;82.30
75621;DHT22;64574;48.506;-2.750;2023-11-21T08:05:33;11.00;82.20
75621;DHT22;64574;48.506;-2.750;2023-11-21T08:07:59;11.00;82.20
75621;DHT22;64574;48.506;-2.750;2023-11-21T08:10:24;11.10;82.30
75621;DHT22;64574;48.506;-2.750;2023-11-21T08:12:50;11.20;82.00
75621;DHT22;64574;48.506;-2.750;2023-11-21T08:15:16;11.30;81.90
75621;DHT22;64574;48.506;-2.750;2023-11-21T08:17:42;11.30;82.00
75621;DHT22;64574;48.506;-2.750;2023-11-21T08:20:08;11.40;81.90
75621;DHT22;64574;48.506;-2.750;2023-11-21T08:22:36;11.40;82.00
75621;DHT22;64574;48.506;-2.750;2023-11-21T08:25:02;11.40;81.60
75621;DHT22;64574;48.506;-2.750;2023-11-21T08:27:29;11.40;81.40
75621;DHT22;64574;48.506;-2.750;2023-11-21T08:29:55;11.40;81.50
75621;DHT22;64574;48.506;-2.750;2023-11-21T08:32:22;11.40;81.80
75621;DHT22;64574;48.506;-2.750;2023-11-21T08:34:48;11.30;81.80
75621;DHT22;64574;48.506;-2.750;2023-11-21T08:37:16;11.30;81.70
75621;DHT22;64574;48.506;-2.750;2023-11-21T08:39:44;11.40;81.90
75621;DHT22;64574;48.506;-2.750;2023-11-21T08:42:10;11.20;82.70
75621;DHT22;64574;48.506;-2.750;2023-11-21T08:44:35;11.00;83.30
75621;DHT22;64574;48.506;-2.750;2023-11-21T08:47:01;10.90;83.60
75621;DHT22;64574;48.506;-2.750;2023-11-21T08:49:27;11.00;84.00
75621;DHT22;64574;48.506;-2.750;2023-11-21T08:51:54;11.00;84.20
75621;DHT22;64574;48.506;-2.750;2023-11-21T08:54:25;11.10;84.30
75621;DHT22;64574;48.506;-2.750;2023-11-21T08:56:52;11.10;84.50
75621;DHT22;64574;48.506;-2.750;2023-11-21T08:59:18;11.20;84.70
75621;DHT22;64574;48.506;-2.750;2023-11-21T09:01:45;11.30;84.30
75621;DHT22;64574;48.506;-2.750;2023-11-21T09:04:12;11.30;84.30
75621;DHT22;64574;48.506;-2.750;2023-11-21T09:06:38;11.40;84.40
75621;DHT22;64574;48.506;-2.750;2023-11-21T09:09:05;11.50;84.00
75621;DHT22;64574;48.506;-2.750;2023-11-21T09:11:32;11.50;83.60
75621;DHT22;64574;48.506;-2.750;2023-11-21T09:13:59;11.50;83.80
75621;DHT22;64574;48.506;-2.750;2023-11-21T09:16:25;11.40;84.80
75621;DHT22;64574;48.506;-2.750;2023-11-21T09:18:51;11.30;86.40
75621;DHT22;64574;48.506;-2.750;2023-11-21T09:21:16;11.30;87.10
75621;DHT22;64574;48.506;-2.750;2023-11-21T09:23:44;11.30;86.70
75621;DHT22;64574;48.506;-2.750;2023-11-21T09:26:10;11.30;86.90
75621;DHT22;64574;48.506;-2.750;2023-11-21T09:28:36;11.30;87.00
75621;DHT22;64574;48.506;-2.750;2023-11-21T09:31:06;11.40;87.00
75621;DHT22;64574;48.506;-2.750;2023-11-21T09:33:34;11.30;87.00
75621;DHT22;64574;48.506;-2.750;2023-11-21T09:36:00;11.40;87.10
75621;DHT22;64574;48.506;-2.750;2023-11-21T09:38:26;11.40;87.10
75621;DHT22;64574;48.506;-2.750;2023-11-21T09:40:54;11.50;87.30
75621;DHT22;64574;48.506;-2.750;2023-11-21T09:43:20;11.50;87.20
75621;DHT22;64574;48.506;-2.750;2023-11-21T09:45:54;11.50;87.30
75621;DHT22;64574;48.506;-2.750;2023-11-21T09:48:23;11.50;87.10
75621;DHT22;64574;48.506;-2.750;2023-11-21T09:50:50;11.30;86.60
75621;DHT22;64574;48.506;-2.750;2023-11-21T09:53:21;11.10;86.10
75621;DHT22;64574;48.506;-2.750;2023-11-21T09:55:49;11.20;85.80
75621;DHT22;64574;48.506;-2.750;2023-11-21T09:58:16;11.30;85.50
75621;DHT22;64574;48.506;-2.750;2023-11-21T10:00:47;11.40;85.30
75621;DHT22;64574;48.506;-2.750;2023-11-21T10:03:13;11.40;85.50
75621;DHT22;64574;48.506;-2.750;2023-11-21T10:05:41;11.50;85.40
75621;DHT22;64574;48.506;-2.750;2023-11-21T10:08:08;11.50;85.00
75621;DHT22;64574;48.506;-2.750;2023-11-21T10:10:42;11.50;84.00
75621;DHT22;64574;48.506;-2.750;2023-11-21T10:13:11;11.50;84.00
75621;DHT22;64574;48.506;-2.750;2023-11-21T10:15:38;11.50;84.00
75621;DHT22;64574;48.506;-2.750;2023-11-21T10:18:04;11.60;84.00
75621;DHT22;64574;48.506;-2.750;2023-11-21T10:20:34;11.50;83.60
75621;DHT22;64574;48.506;-2.750;2023-11-21T10:23:01;11.50;83.70
75621;DHT22;64574;48.506;-2.750;2023-11-21T10:25:30;11.50;84.00
75621;DHT22;64574;48.506;-2.750;2023-11-21T10:28:01;11.50;83.80
75621;DHT22;64574;48.506;-2.750;2023-11-21T10:32:59;11.70;82.80
75621;DHT22;64574;48.506;-2.750;2023-11-21T10:35:47;11.80;82.50
75621;DHT22;64574;48.506;-2.750;2023-11-21T10:38:17;11.90;82.50
75621;DHT22;64574;48.506;-2.750;2023-11-21T10:40:44;11.90;82.10
75621;DHT22;64574;48.506;-2.750;2023-11-21T10:43:10;11.90;82.10
75621;DHT22;64574;48.506;-2.750;2023-11-21T10:45:39;11.90;81.90
75621;DHT22;64574;48.506;-2.750;2023-11-21T10:48:10;11.90;81.50
75621;DHT22;64574;48.506;-2.750;2023-11-21T10:50:37;11.70;81.30
75621;DHT22;64574;48.506;-2.750;2023-11-21T10:53:04;11.70;81.20
75621;DHT22;64574;48.506;-2.750;2023-11-21T10:55:30;11.70;81.10
75621;DHT22;64574;48.506;-2.750;2023-11-21T10:58:00;11.60;81.00
75621;DHT22;64574;48.506;-2.750;2023-11-21T11:00:28;11.70;81.00
75621;DHT22;64574;48.506;-2.750;2023-11-21T11:02:54;11.80;81.40
75621;DHT22;64574;48.506;-2.750;2023-11-21T11:05:22;11.80;81.70
75621;DHT22;64574;48.506;-2.750;2023-11-21T11:07:51;11.80;82.40
75621;DHT22;64574;48.506;-2.750;2023-11-21T11:10:26;11.80;82.70
75621;DHT22;64574;48.506;-2.750;2023-11-21T11:12:56;11.70;82.30
75621;DHT22;64574;48.506;-2.750;2023-11-21T11:15:23;11.70;81.90
75621;DHT22;64574;48.506;-2.750;2023-11-21T11:17:49;11.70;82.00
75621;DHT22;64574;48.506;-2.750;2023-11-21T11:20:15;11.70;81.70
75621;DHT22;64574;48.506;-2.750;2023-11-21T11:29:18;11.70;81.80
75621;DHT22;64574;48.506;-2.750;2023-11-21T11:36:53;11.80;83.50
75621;DHT22;64574;48.506;-2.750;2023-11-21T11:39:34;11.90;83.50
75621;DHT22;64574;48.506;-2.750;2023-11-21T11:42:03;11.80;83.10
75621;DHT22;64574;48.506;-2.750;2023-11-21T11:55:15;11.80;83.30
75621;DHT22;64574;48.506;-2.750;2023-11-21T11:57:45;11.90;83.40
75621;DHT22;64574;48.506;-2.750;2023-11-21T12:00:20;11.90;83.50
75621;DHT22;64574;48.506;-2.750;2023-11-21T12:02:54;12.00;81.70
75621;DHT22;64574;48.506;-2.750;2023-11-21T12:05:22;11.90;80.70
75621;DHT22;64574;48.506;-2.750;2023-11-21T12:10:20;11.90;79.10
75621;DHT22;64574;48.506;-2.750;2023-11-21T12:12:48;11.90;78.70
75621;DHT22;64574;48.506;-2.750;2023-11-21T12:15:14;11.80;78.40
75621;DHT22;64574;48.506;-2.750;2023-11-21T12:17:41;11.70;76.80
75621;DHT22;64574;48.506;-2.750;2023-11-21T12:20:07;11.70;76.90
75621;DHT22;64574;48.506;-2.750;2023-11-21T12:22:52;11.90;76.60
75621;DHT22;64574;48.506;-2.750;2023-11-21T12:25:22;11.90;76.50
75621;DHT22;64574;48.506;-2.750;2023-11-21T12:27:49;11.80;76.40
75621;DHT22;64574;48.506;-2.750;2023-11-21T12:30:15;11.90;76.80
75621;DHT22;64574;48.506;-2.750;2023-11-21T12:32:47;11.90;75.90
75621;DHT22;64574;48.506;-2.750;2023-11-21T12:35:13;11.80;76.20
75621;DHT22;64574;48.506;-2.750;2023-11-21T12:37:40;11.80;76.50
75621;DHT22;64574;48.506;-2.750;2023-11-21T12:40:06;11.70;76.40
75621;DHT22;64574;48.506;-2.750;2023-11-21T12:42:33;11.60;76.20
75621;DHT22;64574;48.506;-2.750;2023-11-21T12:45:32;11.70;75.70
75621;DHT22;64574;48.506;-2.750;2023-11-21T12:47:51;11.70;76.20
75621;DHT22;64574;48.506;-2.750;2023-11-21T12:50:20;11.70;74.60
75621;DHT22;64574;48.506;-2.750;2023-11-21T12:52:51;11.60;75.10
75621;DHT22;64574;48.506;-2.750;2023-11-21T12:55:21;11.50;75.40
75621;DHT22;64574;48.506;-2.750;2023-11-21T12:57:48;11.50;75.60
75621;DHT22;64574;48.506;-2.750;2023-11-21T13:00:15;11.60;75.20
75621;DHT22;64574;48.506;-2.750;2023-11-21T13:02:56;11.70;75.50
75621;DHT22;64574;48.506;-2.750;2023-11-21T13:05:33;11.70;75.10
75621;DHT22;64574;48.506;-2.750;2023-11-21T13:08:01;11.80;75.50
75621;DHT22;64574;48.506;-2.750;2023-11-21T13:10:29;11.70;74.70
75621;DHT22;64574;48.506;-2.750;2023-11-21T13:12:59;11.70;74.70
75621;DHT22;64574;48.506;-2.750;2023-11-21T13:15:25;11.70;74.60
75621;DHT22;64574;48.506;-2.750;2023-11-21T13:17:52;11.70;74.20
75621;DHT22;64574;48.506;-2.750;2023-11-21T13:20:19;11.60;74.00
75621;DHT22;64574;48.506;-2.750;2023-11-21T13:22:53;11.60;73.50
75621;DHT22;64574;48.506;-2.750;2023-11-21T13:25:23;11.60;73.80
75621;DHT22;64574;48.506;-2.750;2023-11-21T13:27:48;11.70;73.90
75621;DHT22;64574;48.506;-2.750;2023-11-21T13:30:15;11.70;73.80
75621;DHT22;64574;48.506;-2.750;2023-11-21T13:32:41;11.70;74.00
75621;DHT22;64574;48.506;-2.750;2023-11-21T13:35:07;11.50;74.30
75621;DHT22;64574;48.506;-2.750;2023-11-21T13:37:37;11.50;73.90
75621;DHT22;64574;48.506;-2.750;2023-11-21T13:40:02;11.50;74.10
75621;DHT22;64574;48.506;-2.750;2023-11-21T13:42:35;11.50;73.60
75621;DHT22;64574;48.506;-2.750;2023-11-21T13:45:00;11.40;73.60
75621;DHT22;64574;48.506;-2.750;2023-11-21T13:47:26;11.50;73.60
75621;DHT22;64574;48.506;-2.750;2023-11-21T13:49:54;11.40;73.10
75621;DHT22;64574;48.506;-2.750;2023-11-21T13:52:20;11.30;73.90
75621;DHT22;64574;48.506;-2.750;2023-11-21T13:54:49;11.30;74.50
75621;DHT22;64574;48.506;-2.750;2023-11-21T13:57:15;11.30;74.90
75621;DHT22;64574;48.506;-2.750;2023-11-21T13:59:41;11.40;75.20
75621;DHT22;64574;48.506;-2.750;2023-11-21T14:02:09;11.20;75.40
75621;DHT22;64574;48.506;-2.750;2023-11-21T14:04:43;11.30;75.00
75621;DHT22;64574;48.506;-2.750;2023-11-21T14:07:29;11.10;75.00
75621;DHT22;64574;48.506;-2.750;2023-11-21T14:10:04;11.10;74.80
75621;DHT22;64574;48.506;-2.750;2023-11-21T14:12:33;11.20;74.80
75621;DHT22;64574;48.506;-2.750;2023-11-21T14:15:01;11.20;74.00
75621;DHT22;64574;48.506;-2.750;2023-11-21T14:17:30;11.10;74.30
75621;DHT22;64574;48.506;-2.750;2023-11-21T14:19:56;11.30;74.10
75621;DHT22;64574;48.506;-2.750;2023-11-21T14:22:22;11.10;73.90
75621;DHT22;64574;48.506;-2.750;2023-11-21T14:24:47;11.10;74.10
75621;DHT22;64574;48.506;-2.750;2023-11-21T14:27:15;11.20;73.50
75621;DHT22;64574;48.506;-2.750;2023-11-21T14:29:42;11.20;73.20
75621;DHT22;64574;48.506;-2.750;2023-11-21T14:32:10;11.10;73.90
75621;DHT22;64574;48.506;-2.750;2023-11-21T14:34:35;11.10;73.90
75621;DHT22;64574;48.506;-2.750;2023-11-21T14:37:02;11.00;73.20
75621;DHT22;64574;48.506;-2.750;2023-11-21T14:39:28;11.00;73.50
75621;DHT22;64574;48.506;-2.750;2023-11-21T14:41:54;11.00;73.20
75621;DHT22;64574;48.506;-2.750;2023-11-21T14:44:24;11.00;73.30
75621;DHT22;64574;48.506;-2.750;2023-11-21T14:46:53;10.90;73.20
75621;DHT22;64574;48.506;-2.750;2023-11-21T14:49:20;10.90;72.90
75621;DHT22;64574;48.506;-2.750;2023-11-21T14:51:50;10.90;72.40
75621;DHT22;64574;48.506;-2.750;2023-11-21T14:54:32;11.00;72.50
75621;DHT22;64574;48.506;-2.750;2023-11-21T14:57:12;11.00;72.30
75621;DHT22;64574;48.506;-2.750;2023-11-21T14:59:47;11.00;72.00
75621;DHT22;64574;48.506;-2.750;2023-11-21T15:02:16;11.00;72.20
75621;DHT22;64574;48.506;-2.750;2023-11-21T15:04:47;11.10;72.20
75621;DHT22;64574;48.506;-2.750;2023-11-21T15:07:13;11.10;71.70
75621;DHT22;64574;48.506;-2.750;2023-11-21T15:09:39;11.10;71.70
75621;DHT22;64574;48.506;-2.750;2023-11-21T15:12:09;11.10;71.80
75621;DHT22;64574;48.506;-2.750;2023-11-21T15:14:46;11.10;71.70
75621;DHT22;64574;48.506;-2.750;2023-11-21T15:17:16;11.10;71.80
75621;DHT22;64574;48.506;-2.750;2023-11-21T15:19:52;11.00;71.90
75621;DHT22;64574;48.506;-2.750;2023-11-21T15:22:18;11.00;72.20
75621;DHT22;64574;48.506;-2.750;2023-11-21T15:24:44;11.00;72.10
75621;DHT22;64574;48.506;-2.750;2023-11-21T15:27:13;11.00;72.30
75621;DHT22;64574;48.506;-2.750;2023-11-21T15:29:39;11.00;72.50
75621;DHT22;64574;48.506;-2.750;2023-11-21T15:32:09;11.00;73.00
75621;DHT22;64574;48.506;-2.750;2023-11-21T15:34:35;11.00;73.10
75621;DHT22;64574;48.506;-2.750;2023-11-21T15:37:02;11.00;73.10
75621;DHT22;64574;48.506;-2.750;2023-11-21T15:39:29;11.00;72.90
75621;DHT22;64574;48.506;-2.750;2023-11-21T15:41:59;11.00;72.50
75621;DHT22;64574;48.506;-2.750;2023-11-21T15:44:25;11.10;72.20